Time;durP1;ratioP1;P1;durP2;ratioP2;P2;SDS_P1;SDS_P2;PMS_P1;PMS_P2;Temp;Humidity;BMP_temperature;BMP_pressure;BME280_temperature;BME280_humidity;BME280_pressure;Samples;Min_cycle;Max_cycle;Signal;HPM_P1;HPM_P2
2023/04/26 00:02:11;;;;;;;8.23;2.08;;;;;;;;;;5156646;27;20066;-74
2023/04/26 00:04:37;;;;;;;6.85;2.13;;;;;;;;;;5156175;27;20045;-75
2023/04/26 00:07:04;;;;;;;7.70;2.38;;;;;;;;;;5138063;27;20027;-74
2023/04/26 00:09:30;;;;;;;4.13;1.77;;;;;;;;;;5137284;27;20054;-75
2023/04/26 00:11:56;;;;;;;7.22;2.10;;;;;;;;;;5156239;27;20087;-75
2023/04/26 00:14:22;;;;;;;6.63;1.90;;;;;;;;;;5117385;27;20075;-74
2023/04/26 00:16:49;;;;;;;5.95;1.90;;;;;;;;;;5137359;27;20042;-74
2023/04/26 00:19:15;;;;;;;6.10;2.10;;;;;;;;;;5156470;27;20122;-74
2023/04/26 00:21:41;;;;;;;6.75;2.00;;;;;;;;;;5155948;27;20046;-74
2023/04/26 00:24:08;;;;;;;5.93;1.92;;;;;;;;;;5155824;27;20479;-74
2023/04/26 00:26:34;;;;;;;6.85;1.83;;;;;;;;;;5138248;27;20050;-74
2023/04/26 00:29:04;;;;;;;6.28;1.85;;;;;;;;;;5116948;27;20035;-74
2023/04/26 00:31:30;;;;;;;6.82;2.00;;;;;;;;;;5137475;27;20038;-73
2023/04/26 00:33:56;;;;;;;6.05;2.08;;;;;;;;;;5149861;27;20066;-73
2023/04/26 00:36:22;;;;;;;7.05;2.10;;;;;;;;;;5116830;27;20112;-74
2023/04/26 00:38:48;;;;;;;5.18;2.22;;;;;;;;;;5135221;27;20087;-74
2023/04/26 00:41:14;;;;;;;5.78;2.00;;;;;;;;;;5137490;27;20078;-74
2023/04/26 00:43:40;;;;;;;8.15;1.90;;;;;;;;;;5122305;27;20043;-74
2023/04/26 00:46:08;;;;;;;4.57;1.80;;;;;;;;;;5156090;27;20047;-74
2023/04/26 00:48:36;;;;;;;4.68;1.75;;;;;;;;;;5124600;27;20110;-74
2023/04/26 00:51:02;;;;;;;6.43;1.60;;;;;;;;;;5136169;27;20039;-74
2023/04/26 00:53:29;;;;;;;5.53;1.98;;;;;;;;;;5131959;27;20119;-75
2023/04/26 00:55:55;;;;;;;6.55;1.90;;;;;;;;;;5126878;27;20049;-75
2023/04/26 00:58:22;;;;;;;9.18;2.13;;;;;;;;;;5137296;27;20038;-75
2023/04/26 01:00:49;;;;;;;9.38;2.00;;;;;;;;;;5136812;27;20514;-75
2023/04/26 01:03:16;;;;;;;5.10;1.63;;;;;;;;;;5137212;27;20034;-74
2023/04/26 01:05:42;;;;;;;6.03;1.92;;;;;;;;;;5155046;27;20049;-74
2023/04/26 01:08:08;;;;;;;6.18;1.95;;;;;;;;;;5155321;27;20043;-74
2023/04/26 01:10:34;;;;;;;8.20;1.73;;;;;;;;;;5155540;27;20061;-74
2023/04/26 01:13:02;;;;;;;7.05;1.88;;;;;;;;;;5140279;27;20491;-75
2023/04/26 01:15:29;;;;;;;7.80;1.70;;;;;;;;;;5106080;27;20070;-75
2023/04/26 01:17:56;;;;;;;7.45;2.17;;;;;;;;;;5150667;27;20039;-74
2023/04/26 01:20:23;;;;;;;6.18;1.67;;;;;;;;;;5136633;27;20082;-74
2023/04/26 01:22:49;;;;;;;3.75;1.55;;;;;;;;;;5135518;27;20388;-73
2023/04/26 01:25:16;;;;;;;4.90;1.70;;;;;;;;;;5140454;27;20087;-73
2023/04/26 01:27:42;;;;;;;5.72;2.00;;;;;;;;;;5119633;27;20041;-73
2023/04/26 01:30:08;;;;;;;6.07;1.92;;;;;;;;;;5131743;27;20043;-73
2023/04/26 01:32:34;;;;;;;7.43;2.15;;;;;;;;;;5126275;27;20039;-73
2023/04/26 01:35:01;;;;;;;6.85;2.10;;;;;;;;;;5135925;27;20042;-73
2023/04/26 01:37:27;;;;;;;6.75;2.42;;;;;;;;;;5154927;27;20035;-73
2023/04/26 01:39:53;;;;;;;7.10;2.20;;;;;;;;;;5135962;27;20042;-73
2023/04/26 01:42:19;;;;;;;7.45;2.28;;;;;;;;;;5119399;27;20099;-73
2023/04/26 01:44:45;;;;;;;4.85;1.98;;;;;;;;;;5136260;27;20448;-73
2023/04/26 01:47:11;;;;;;;7.20;1.88;;;;;;;;;;5136047;27;20070;-74
2023/04/26 01:49:37;;;;;;;4.38;2.08;;;;;;;;;;5136106;27;20039;-74
2023/04/26 01:52:04;;;;;;;7.20;1.92;;;;;;;;;;5153788;27;20077;-75
2023/04/26 01:54:30;;;;;;;7.28;2.10;;;;;;;;;;5136092;27;20146;-74
2023/04/26 01:56:56;;;;;;;10.40;2.50;;;;;;;;;;5135797;27;20395;-74
2023/04/26 01:59:22;;;;;;;7.05;2.10;;;;;;;;;;5135855;27;20074;-74
2023/04/26 02:01:48;;;;;;;6.30;2.40;;;;;;;;;;5135578;27;20038;-74
2023/04/26 02:04:14;;;;;;;4.32;2.00;;;;;;;;;;5118867;27;20074;-75
2023/04/26 02:06:41;;;;;;;4.97;1.80;;;;;;;;;;5152635;27;20030;-75
2023/04/26 02:09:10;;;;;;;6.13;2.40;;;;;;;;;;5135293;27;20046;-75
2023/04/26 02:11:36;;;;;;;9.85;2.35;;;;;;;;;;5118710;27;20035;-74
2023/04/26 02:14:02;;;;;;;8.15;1.98;;;;;;;;;;5153842;27;20502;-75
2023/04/26 02:16:28;;;;;;;9.45;2.20;;;;;;;;;;5135757;27;20037;-74
2023/04/26 02:18:55;;;;;;;6.97;2.30;;;;;;;;;;5153851;27;20088;-75
2023/04/26 02:21:21;;;;;;;7.05;2.55;;;;;;;;;;5135889;27;20116;-75
2023/04/26 02:23:47;;;;;;;6.50;2.40;;;;;;;;;;5153886;27;20083;-75
2023/04/26 02:26:14;;;;;;;8.10;2.10;;;;;;;;;;5135116;27;20050;-75
2023/04/26 02:28:40;;;;;;;7.90;2.47;;;;;;;;;;5135665;27;20065;-75
2023/04/26 02:31:07;;;;;;;7.78;2.72;;;;;;;;;;5117753;27;20550;-74
2023/04/26 02:33:33;;;;;;;8.10;2.70;;;;;;;;;;5135276;27;20050;-75
2023/04/26 02:36:02;;;;;;;7.18;2.85;;;;;;;;;;5135136;27;20446;-75
2023/04/26 02:38:28;;;;;;;10.05;2.75;;;;;;;;;;5135141;27;20042;-75
2023/04/26 02:41:00;;;;;;;10.18;2.97;;;;;;;;;;5107750;28;20118;-75
2023/04/26 02:43:27;;;;;;;10.52;2.63;;;;;;;;;;5108591;28;20383;-74
2023/04/26 02:45:53;;;;;;;7.65;2.67;;;;;;;;;;5110978;27;20053;-74
2023/04/26 02:48:19;;;;;;;7.47;2.35;;;;;;;;;;5118272;27;20043;-75
2023/04/26 02:50:46;;;;;;;7.35;3.47;;;;;;;;;;5135007;27;20041;-75
2023/04/26 02:53:12;;;;;;;9.68;3.08;;;;;;;;;;5152993;27;20039;-74
2023/04/26 02:55:39;;;;;;;12.32;3.00;;;;;;;;;;5135444;27;20095;-74
2023/04/26 02:58:05;;;;;;;9.13;2.70;;;;;;;;;;5153382;27;20042;-74
2023/04/26 03:00:32;;;;;;;9.38;2.92;;;;;;;;;;5134934;27;20046;-74
2023/04/26 03:02:59;;;;;;;8.20;2.67;;;;;;;;;;5135055;27;20591;-75
2023/04/26 03:05:25;;;;;;;7.93;2.75;;;;;;;;;;5135195;27;20042;-74
2023/04/26 03:07:51;;;;;;;7.13;2.83;;;;;;;;;;5129452;28;20047;-74
2023/04/26 03:10:17;;;;;;;11.05;2.80;;;;;;;;;;5105681;28;20046;-75
2023/04/26 03:12:43;;;;;;;6.65;2.60;;;;;;;;;;5151157;27;20033;-74
2023/04/26 03:15:09;;;;;;;6.13;2.25;;;;;;;;;;5134618;27;20043;-75
2023/04/26 03:17:36;;;;;;;6.78;2.70;;;;;;;;;;5135123;27;20512;-74
2023/04/26 03:20:05;;;;;;;7.22;2.60;;;;;;;;;;5117504;27;20039;-74
2023/04/26 03:22:31;;;;;;;6.88;2.42;;;;;;;;;;5134781;27;20121;-74
2023/04/26 03:24:57;;;;;;;5.78;2.63;;;;;;;;;;5146205;27;20051;-73
2023/04/26 03:27:23;;;;;;;5.90;2.47;;;;;;;;;;5090166;28;20605;-73
2023/04/26 03:29:49;;;;;;;9.48;2.47;;;;;;;;;;5147084;27;20514;-73
2023/04/26 03:32:15;;;;;;;7.28;2.40;;;;;;;;;;5124956;27;20034;-73
2023/04/26 03:34:41;;;;;;;9.50;2.53;;;;;;;;;;5134858;27;20053;-73
2023/04/26 03:37:07;;;;;;;7.25;2.58;;;;;;;;;;5134624;27;20100;-74
2023/04/26 03:39:33;;;;;;;9.23;2.40;;;;;;;;;;5134522;27;20050;-74
2023/04/26 03:42:00;;;;;;;5.93;2.20;;;;;;;;;;5134538;27;20122;-75
2023/04/26 03:44:26;;;;;;;8.68;2.72;;;;;;;;;;5120473;27;20043;-74
2023/04/26 03:46:52;;;;;;;5.00;2.45;;;;;;;;;;5138779;27;20035;-74
2023/04/26 03:49:18;;;;;;;6.60;2.67;;;;;;;;;;5138340;27;20376;-74
2023/04/26 03:51:44;;;;;;;8.75;2.47;;;;;;;;;;5156916;27;20117;-74
2023/04/26 03:54:10;;;;;;;8.55;2.67;;;;;;;;;;5138242;27;20126;-74
2023/04/26 03:56:37;;;;;;;5.68;2.60;;;;;;;;;;5138128;27;20047;-74
2023/04/26 03:59:03;;;;;;;6.00;2.38;;;;;;;;;;5137866;27;20042;-74
2023/04/26 04:01:30;;;;;;;4.38;2.13;;;;;;;;;;5123903;27;20045;-74
2023/04/26 04:03:56;;;;;;;9.63;2.38;;;;;;;;;;5150293;27;20103;-74
2023/04/26 04:06:22;;;;;;;6.68;2.42;;;;;;;;;;5136780;27;20043;-74
2023/04/26 04:08:48;;;;;;;5.63;2.00;;;;;;;;;;5137880;27;20041;-74
2023/04/26 04:11:14;;;;;;;4.88;1.90;;;;;;;;;;5137419;27;20046;-74
2023/04/26 04:13:40;;;;;;;5.68;2.40;;;;;;;;;;5137808;27;20027;-74
2023/04/26 04:16:09;;;;;;;6.07;2.63;;;;;;;;;;5137461;27;20045;-75
2023/04/26 04:18:35;;;;;;;7.40;2.90;;;;;;;;;;5137756;27;20035;-74
2023/04/26 04:21:01;;;;;;;6.53;3.15;;;;;;;;;;5137731;27;20035;-74
2023/04/26 04:23:27;;;;;;;6.40;2.33;;;;;;;;;;5155788;27;20037;-74
2023/04/26 04:25:54;;;;;;;6.72;2.67;;;;;;;;;;5137364;27;20050;-74
2023/04/26 04:28:21;;;;;;;8.93;2.70;;;;;;;;;;5156223;27;20407;-74
2023/04/26 04:30:47;;;;;;;9.27;2.60;;;;;;;;;;5138245;27;20042;-74
2023/04/26 04:33:13;;;;;;;6.68;2.25;;;;;;;;;;5120273;27;20041;-74
2023/04/26 04:35:43;;;;;;;12.77;3.33;;;;;;;;;;5137351;27;20117;-75
2023/04/26 04:38:09;;;;;;;8.02;2.70;;;;;;;;;;5120043;27;20034;-75
2023/04/26 04:40:35;;;;;;;8.82;2.58;;;;;;;;;;5111511;27;20050;-74
2023/04/26 04:43:02;;;;;;;8.77;2.67;;;;;;;;;;5137518;27;20118;-74
2023/04/26 04:45:28;;;;;;;7.55;2.60;;;;;;;;;;5113879;27;20400;-75
2023/04/26 04:47:55;;;;;;;8.23;2.70;;;;;;;;;;5137519;27;20479;-74
2023/04/26 04:50:22;;;;;;;10.00;2.55;;;;;;;;;;5119515;27;20031;-75
2023/04/26 04:52:48;;;;;;;9.77;2.40;;;;;;;;;;5155728;27;20035;-75
2023/04/26 04:55:14;;;;;;;10.43;2.47;;;;;;;;;;5119367;27;20037;-74
2023/04/26 04:57:41;;;;;;;5.78;2.45;;;;;;;;;;5155530;27;20091;-74
2023/04/26 05:00:11;;;;;;;6.53;2.40;;;;;;;;;;5136983;27;20046;-74
2023/04/26 05:02:37;;;;;;;7.47;2.63;;;;;;;;;;5137189;27;20547;-75
2023/04/26 05:05:04;;;;;;;11.50;2.70;;;;;;;;;;5125932;27;20491;-74
2023/04/26 05:07:33;;;;;;;6.65;2.20;;;;;;;;;;5133374;27;20486;-74
2023/04/26 05:09:59;;;;;;;5.88;2.45;;;;;;;;;;5136920;27;20077;-74
2023/04/26 05:12:25;;;;;;;6.13;2.50;;;;;;;;;;5154786;27;20443;-74
2023/04/26 05:14:52;;;;;;;8.32;2.65;;;;;;;;;;5129096;27;20041;-74
2023/04/26 05:17:18;;;;;;;9.02;3.33;;;;;;;;;;5129924;27;20444;-73
2023/04/26 05:19:44;;;;;;;6.25;2.65;;;;;;;;;;5155161;27;20035;-73
2023/04/26 05:22:11;;;;;;;5.80;2.50;;;;;;;;;;5136416;27;20487;-73
2023/04/26 05:24:38;;;;;;;8.88;2.65;;;;;;;;;;5115225;27;20047;-73
2023/04/26 05:27:04;;;;;;;9.13;2.70;;;;;;;;;;5126332;27;20042;-74
2023/04/26 05:29:30;;;;;;;8.60;2.90;;;;;;;;;;5134298;27;20086;-74
2023/04/26 05:31:56;;;;;;;8.95;2.80;;;;;;;;;;5107082;27;20064;-74
2023/04/26 05:34:23;;;;;;;6.15;2.50;;;;;;;;;;5136334;27;20055;-73
2023/04/26 05:36:50;;;;;;;8.45;2.90;;;;;;;;;;5136637;27;20039;-74
2023/04/26 05:39:18;;;;;;;8.45;2.70;;;;;;;;;;5136173;27;20117;-74
2023/04/26 05:41:44;;;;;;;8.90;3.60;;;;;;;;;;5154653;27;20031;-74
2023/04/26 05:44:10;;;;;;;12.98;3.25;;;;;;;;;;5136230;27;20047;-74
2023/04/26 05:46:36;;;;;;;5.85;2.35;;;;;;;;;;5117732;27;20073;-73
2023/04/26 05:49:02;;;;;;;9.27;2.58;;;;;;;;;;5136163;27;20043;-73
2023/04/26 05:51:28;;;;;;;9.45;2.30;;;;;;;;;;5154063;27;20091;-75
2023/04/26 05:53:54;;;;;;;5.97;2.10;;;;;;;;;;5136455;27;20360;-73
2023/04/26 05:56:20;;;;;;;6.38;2.10;;;;;;;;;;5150112;27;20487;-74
2023/04/26 05:58:47;;;;;;;10.68;2.30;;;;;;;;;;5135961;27;20071;-74
2023/04/26 06:01:13;;;;;;;6.40;1.70;;;;;;;;;;5154398;27;20042;-75
2023/04/26 06:03:39;;;;;;;3.95;1.50;;;;;;;;;;5135654;27;20039;-73
2023/04/26 06:06:06;;;;;;;7.05;1.75;;;;;;;;;;5135047;27;20042;-75
2023/04/26 06:08:33;;;;;;;4.30;1.73;;;;;;;;;;5135940;27;20074;-73
2023/04/26 06:10:59;;;;;;;3.97;1.60;;;;;;;;;;5135921;27;20117;-73
2023/04/26 06:13:25;;;;;;;6.28;1.80;;;;;;;;;;5154295;27;20031;-73
2023/04/26 06:15:52;;;;;;;4.78;2.17;;;;;;;;;;5121237;27;20050;-74
2023/04/26 06:18:18;;;;;;;4.93;1.70;;;;;;;;;;5118258;27;20042;-74
2023/04/26 06:20:46;;;;;;;4.22;2.17;;;;;;;;;;5135691;27;20072;-75
2023/04/26 06:23:12;;;;;;;4.22;1.63;;;;;;;;;;5121013;27;20103;-76
2023/04/26 06:25:44;;;;;;;3.55;1.70;;;;;;;;;;5100885;27;20055;-75
2023/04/26 06:28:12;;;;;;;4.15;1.70;;;;;;;;;;5114481;27;20058;-75
2023/04/26 06:30:38;;;;;;;6.13;1.90;;;;;;;;;;5135641;27;20759;-75
2023/04/26 06:33:04;;;;;;;5.28;2.03;;;;;;;;;;5117451;27;20036;-75
2023/04/26 06:35:30;;;;;;;5.18;1.58;;;;;;;;;;5133016;27;20425;-75
2023/04/26 06:37:56;;;;;;;4.60;1.40;;;;;;;;;;5130628;27;20083;-75
2023/04/26 06:40:22;;;;;;;4.75;1.35;;;;;;;;;;5127882;27;20377;-76
2023/04/26 06:42:48;;;;;;;6.80;1.60;;;;;;;;;;5128923;27;20567;-74
2023/04/26 06:45:15;;;;;;;8.82;1.73;;;;;;;;;;5112371;28;20039;-74
2023/04/26 06:47:41;;;;;;;3.92;1.40;;;;;;;;;;5126414;27;20121;-75
2023/04/26 06:50:07;;;;;;;5.15;1.77;;;;;;;;;;5118413;27;20360;-75
2023/04/26 06:52:33;;;;;;;6.03;1.58;;;;;;;;;;5114966;28;20495;-75
2023/04/26 06:55:03;;;;;;;4.47;1.30;;;;;;;;;;5096888;27;20098;-75
2023/04/26 06:57:29;;;;;;;7.95;1.30;;;;;;;;;;5134758;27;20102;-75
2023/04/26 06:59:56;;;;;;;7.10;1.40;;;;;;;;;;5118365;27;20525;-76
2023/04/26 07:02:23;;;;;;;4.45;1.65;;;;;;;;;;5135478;27;20065;-76
2023/04/26 07:04:49;;;;;;;5.57;1.40;;;;;;;;;;5135385;27;20034;-75
2023/04/26 07:07:15;;;;;;;4.57;1.20;;;;;;;;;;5135325;27;20487;-77
2023/04/26 07:09:42;;;;;;;6.18;1.30;;;;;;;;;;5118127;28;20027;-75
2023/04/26 07:12:10;;;;;;;7.03;1.27;;;;;;;;;;5080987;28;20118;-75
2023/04/26 07:14:39;;;;;;;3.75;1.30;;;;;;;;;;5119468;27;20050;-75
2023/04/26 07:17:06;;;;;;;5.10;1.50;;;;;;;;;;5154200;27;20042;-75
2023/04/26 07:19:32;;;;;;;4.78;1.40;;;;;;;;;;5121757;27;20479;-76
2023/04/26 07:21:58;;;;;;;5.85;1.48;;;;;;;;;;5138932;27;20119;-75
2023/04/26 07:24:24;;;;;;;6.45;1.27;;;;;;;;;;5124618;27;20063;-76
2023/04/26 07:26:51;;;;;;;4.65;1.48;;;;;;;;;;5118119;27;20154;-75
2023/04/26 07:29:20;;;;;;;4.13;1.33;;;;;;;;;;5132663;27;20053;-75
2023/04/26 07:31:46;;;;;;;3.42;1.20;;;;;;;;;;5156983;27;20052;-75
2023/04/26 07:34:12;;;;;;;4.72;1.20;;;;;;;;;;5157481;27;20130;-75
2023/04/26 07:36:38;;;;;;;5.30;1.52;;;;;;;;;;5142319;27;20122;-76
2023/04/26 07:39:05;;;;;;;4.60;1.30;;;;;;;;;;5138680;27;20042;-75
2023/04/26 07:41:31;;;;;;;5.82;1.52;;;;;;;;;;5156813;27;20049;-75
2023/04/26 07:43:58;;;;;;;3.15;1.20;;;;;;;;;;5138645;27;20050;-75
2023/04/26 07:46:24;;;;;;;3.15;1.20;;;;;;;;;;5138132;27;20043;-75
2023/04/26 07:48:50;;;;;;;3.28;1.40;;;;;;;;;;5138513;27;20041;-74
2023/04/26 07:51:16;;;;;;;4.38;1.10;;;;;;;;;;5117934;27;20038;-74
2023/04/26 07:53:42;;;;;;;3.10;1.15;;;;;;;;;;5136988;27;20041;-74
2023/04/26 07:56:08;;;;;;;6.45;1.10;;;;;;;;;;5138298;27;20039;-74
2023/04/26 07:58:35;;;;;;;5.40;1.27;;;;;;;;;;5156823;27;20039;-76
2023/04/26 08:01:02;;;;;;;5.30;1.20;;;;;;;;;;5138052;27;20042;-76
2023/04/26 08:03:28;;;;;;;3.28;1.20;;;;;;;;;;5138534;27;20043;-74
2023/04/26 08:05:54;;;;;;;4.63;1.30;;;;;;;;;;5134676;27;20039;-75
2023/04/26 08:08:21;;;;;;;5.05;1.30;;;;;;;;;;5127678;27;20042;-76
2023/04/26 08:10:47;;;;;;;8.95;1.40;;;;;;;;;;5137755;27;20091;-75
2023/04/26 08:13:13;;;;;;;6.15;1.70;;;;;;;;;;5138232;27;20041;-75
2023/04/26 08:15:39;;;;;;;7.38;1.33;;;;;;;;;;5137488;27;20051;-75
2023/04/26 08:18:05;;;;;;;6.75;1.30;;;;;;;;;;5138811;27;20053;-75
2023/04/26 08:20:31;;;;;;;4.78;1.30;;;;;;;;;;5156325;27;20114;-74
2023/04/26 08:22:58;;;;;;;6.10;1.50;;;;;;;;;;5156491;27;20033;-75
2023/04/26 08:25:24;;;;;;;7.07;1.70;;;;;;;;;;5120837;27;20179;-76
2023/04/26 08:27:51;;;;;;;5.22;1.30;;;;;;;;;;5137569;27;20495;-75
2023/04/26 08:30:18;;;;;;;5.63;1.30;;;;;;;;;;5155909;27;20394;-76
2023/04/26 08:32:44;;;;;;;5.35;1.67;;;;;;;;;;5155815;27;20449;-75
2023/04/26 08:35:10;;;;;;;6.60;1.55;;;;;;;;;;5156274;27;20065;-75
2023/04/26 08:37:37;;;;;;;5.47;1.40;;;;;;;;;;5137298;27;20125;-75
2023/04/26 08:40:04;;;;;;;8.88;1.42;;;;;;;;;;5156006;27;20513;-75
2023/04/26 08:42:31;;;;;;;5.00;1.30;;;;;;;;;;5155930;27;20070;-77
2023/04/26 08:45:01;;;;;;;5.60;1.40;;;;;;;;;;5155630;27;20043;-74
2023/04/26 08:47:43;;;;;;;7.38;1.50;;;;;;;;;;5137497;27;20038;-74
2023/04/26 08:50:11;;;;;;;6.40;1.60;;;;;;;;;;5120445;27;20034;-76
2023/04/26 08:52:37;;;;;;;6.97;2.00;;;;;;;;;;5155661;27;20564;-74
2023/04/26 08:55:05;;;;;;;8.18;1.60;;;;;;;;;;5138850;27;20042;-75
2023/04/26 08:57:32;;;;;;;6.22;1.80;;;;;;;;;;5136025;27;20395;-75
2023/04/26 08:59:58;;;;;;;9.57;1.65;;;;;;;;;;5155369;27;20053;-75
2023/04/26 09:02:24;;;;;;;7.25;1.77;;;;;;;;;;5136783;27;20054;-75
2023/04/26 09:04:50;;;;;;;4.93;1.52;;;;;;;;;;5155249;27;20031;-75
2023/04/26 09:07:40;;;;;;;5.60;1.40;;;;;;;;;;5155392;27;20031;-76
2023/04/26 09:10:06;;;;;;;4.68;1.40;;;;;;;;;;5106982;27;20043;-75
2023/04/26 09:12:32;;;;;;;5.68;1.38;;;;;;;;;;5134391;27;20126;-75
2023/04/26 09:14:59;;;;;;;3.83;1.50;;;;;;;;;;5155144;27;20046;-75
2023/04/26 09:17:26;;;;;;;4.15;1.40;;;;;;;;;;5136376;27;20167;-76
2023/04/26 09:19:53;;;;;;;6.40;1.63;;;;;;;;;;5119272;27;20058;-75
2023/04/26 09:22:35;;;;;;;5.57;1.55;;;;;;;;;;5155632;27;20390;-75
2023/04/26 09:25:06;;;;;;;4.65;1.27;;;;;;;;;;5119448;27;20062;-75
2023/04/26 09:27:35;;;;;;;5.15;1.52;;;;;;;;;;5130764;27;20038;-75
2023/04/26 09:30:15;;;;;;;4.85;1.67;;;;;;;;;;5137863;27;20043;-74
2023/04/26 09:32:46;;;;;;;4.07;1.17;;;;;;;;;;5122380;27;20050;-74
2023/04/26 09:35:38;;;;;;;4.15;1.33;;;;;;;;;;5136711;27;20078;-75
2023/04/26 09:38:05;;;;;;;5.95;1.38;;;;;;;;;;5150492;27;20487;-76
2023/04/26 09:40:42;;;;;;;4.20;1.60;;;;;;;;;;5126687;27;20104;-75
2023/04/26 09:43:15;;;;;;;7.70;1.30;;;;;;;;;;5134092;27;20503;-77
2023/04/26 09:45:44;;;;;;;4.00;1.30;;;;;;;;;;5124924;27;20043;-76
2023/04/26 09:48:15;;;;;;;5.55;1.30;;;;;;;;;;5135947;27;20053;-75
2023/04/26 09:50:42;;;;;;;4.80;1.50;;;;;;;;;;5136146;27;20111;-75
2023/04/26 09:53:09;;;;;;;4.85;1.30;;;;;;;;;;5136218;27;20113;-75
2023/04/26 09:55:35;;;;;;;4.35;1.35;;;;;;;;;;5118900;27;20551;-76
2023/04/26 09:58:07;;;;;;;7.28;1.13;;;;;;;;;;5135724;27;20042;-75
2023/04/26 10:00:34;;;;;;;2.47;1.05;;;;;;;;;;5154732;27;20565;-76
2023/04/26 10:03:00;;;;;;;6.55;1.35;;;;;;;;;;5154062;27;20043;-76
2023/04/26 10:05:27;;;;;;;5.60;1.35;;;;;;;;;;5136018;27;20046;-75
2023/04/26 10:07:53;;;;;;;4.85;1.48;;;;;;;;;;5153784;27;20082;-76
2023/04/26 10:10:20;;;;;;;5.32;1.30;;;;;;;;;;5154635;27;20027;-77
2023/04/26 10:12:47;;;;;;;6.53;1.40;;;;;;;;;;5135301;27;20042;-75
2023/04/26 10:15:14;;;;;;;4.25;1.30;;;;;;;;;;5125272;27;20047;-76
2023/04/26 10:17:40;;;;;;;5.25;1.40;;;;;;;;;;5129294;27;20034;-75
2023/04/26 10:20:10;;;;;;;4.30;1.20;;;;;;;;;;5123959;27;20456;-73
2023/04/26 10:22:40;;;;;;;3.53;1.10;;;;;;;;;;5135536;27;20047;-75
2023/04/26 10:25:08;;;;;;;3.95;1.08;;;;;;;;;;5131446;27;20055;-75
2023/04/26 10:27:44;;;;;;;3.33;1.30;;;;;;;;;;5132216;27;20050;-74
2023/04/26 10:30:11;;;;;;;;;;;;;;;;;;5132845;27;20507;-75
2023/04/26 10:32:52;;;;;;;5.15;1.40;;;;;;;;;;5115188;27;20390;-75
2023/04/26 10:35:19;;;;;;;6.13;1.30;;;;;;;;;;5116326;27;20039;-77
2023/04/26 10:38:00;;;;;;;5.40;1.40;;;;;;;;;;5111746;28;20052;-74
2023/04/26 10:40:26;;;;;;;3.55;1.10;;;;;;;;;;5120758;28;20035;-75
2023/04/26 10:43:18;;;;;;;4.15;1.40;;;;;;;;;;5114851;28;20507;-75
2023/04/26 10:45:47;;;;;;;4.82;1.52;;;;;;;;;;5131840;28;20074;-74
2023/04/26 10:48:17;;;;;;;10.57;1.70;;;;;;;;;;5131714;28;20488;-73
2023/04/26 10:51:07;;;;;;;5.53;1.52;;;;;;;;;;5133349;27;20084;-75
2023/04/26 10:53:35;;;;;;;5.03;1.60;;;;;;;;;;5118268;27;20039;-74
2023/04/26 10:56:01;;;;;;;6.60;1.70;;;;;;;;;;5135742;27;20043;-74
2023/04/26 10:58:31;;;;;;;6.20;1.67;;;;;;;;;;5136201;27;20046;-74
2023/04/26 11:01:04;;;;;;;5.82;1.70;;;;;;;;;;5135798;27;20043;-74
2023/04/26 11:03:30;;;;;;;5.20;1.70;;;;;;;;;;5135977;27;20039;-72
2023/04/26 11:05:56;;;;;;;6.40;1.80;;;;;;;;;;5136505;27;20039;-76
2023/04/26 11:08:25;;;;;;;7.97;1.75;;;;;;;;;;5136104;27;20518;-73
2023/04/26 11:11:05;;;;;;;6.50;1.73;;;;;;;;;;5135687;27;20476;-74
2023/04/26 11:13:32;;;;;;;7.93;1.67;;;;;;;;;;5136195;27;20123;-76
2023/04/26 11:16:02;;;;;;;5.80;2.20;;;;;;;;;;5135563;27;20039;-75
2023/04/26 11:18:29;;;;;;;6.68;1.90;;;;;;;;;;5136092;27;20047;-74
2023/04/26 11:20:56;;;;;;;8.95;2.15;;;;;;;;;;5118100;27;20045;-73
2023/04/26 11:23:22;;;;;;;4.38;1.60;;;;;;;;;;5135525;27;20058;-75
2023/04/26 11:25:48;;;;;;;5.75;1.88;;;;;;;;;;5147861;27;20086;-74
2023/04/26 11:28:15;;;;;;;4.95;1.98;;;;;;;;;;5138531;27;20125;-74
2023/04/26 11:30:43;;;;;;;8.32;2.30;;;;;;;;;;5157726;27;20451;-76
2023/04/26 11:33:17;;;;;;;8.85;2.17;;;;;;;;;;5156830;27;20031;-76
2023/04/26 11:35:43;;;;;;;8.25;1.92;;;;;;;;;;5127652;27;20096;-76
2023/04/26 11:38:09;;;;;;;4.47;1.77;;;;;;;;;;5115318;27;20542;-74
2023/04/26 11:40:35;;;;;;;9.60;2.17;;;;;;;;;;5127779;27;20043;-75
2023/04/26 11:43:04;;;;;;;6.90;2.10;;;;;;;;;;5138286;27;20070;-74
2023/04/26 11:45:35;;;;;;;9.02;2.20;;;;;;;;;;5130692;27;20047;-75
2023/04/26 11:48:02;;;;;;;7.70;2.05;;;;;;;;;;5131807;27;20035;-73
2023/04/26 11:50:29;;;;;;;4.68;1.90;;;;;;;;;;5118075;27;20027;-75
2023/04/26 11:52:56;;;;;;;8.60;2.30;;;;;;;;;;5113564;27;20064;-75
2023/04/26 11:55:33;;;;;;;5.00;2.15;;;;;;;;;;5138030;27;20051;-73
2023/04/26 11:57:59;;;;;;;6.07;2.38;;;;;;;;;;5138214;27;20045;-75
2023/04/26 12:00:26;;;;;;;5.65;2.05;;;;;;;;;;5156442;27;20498;-74
2023/04/26 12:02:52;;;;;;;8.15;2.92;;;;;;;;;;5138011;27;20042;-75
2023/04/26 12:05:25;;;;;;;6.85;2.40;;;;;;;;;;5136609;27;20053;-74
2023/04/26 12:07:56;;;;;;;11.85;2.47;;;;;;;;;;5121119;27;20077;-75
2023/04/26 12:10:22;;;;;;;8.60;2.70;;;;;;;;;;5138295;27;20551;-74
2023/04/26 12:12:49;;;;;;;7.47;2.85;;;;;;;;;;5138306;27;20555;-75
2023/04/26 12:15:16;;;;;;;10.18;3.35;;;;;;;;;;5137738;27;20551;-75
2023/04/26 12:17:52;;;;;;;7.78;2.70;;;;;;;;;;5138006;27;20125;-75
2023/04/26 12:20:18;;;;;;;;;;;;;;;;;;5137901;27;20043;-75
2023/04/26 12:23:01;;;;;;;11.55;2.60;;;;;;;;;;5137862;27;19915;-75
2023/04/26 12:25:27;;;;;;;14.60;2.70;;;;;;;;;;5120416;27;20483;-74
2023/04/26 12:27:54;;;;;;;10.77;2.72;;;;;;;;;;5138058;27;20134;-75
2023/04/26 12:30:20;;;;;;;9.73;2.60;;;;;;;;;;5156286;27;20387;-74
2023/04/26 12:32:46;;;;;;;5.82;2.33;;;;;;;;;;5137841;27;20487;-75
2023/04/26 12:35:12;;;;;;;7.57;2.47;;;;;;;;;;5120148;27;20046;-75
2023/04/26 12:37:38;;;;;;;8.95;2.30;;;;;;;;;;5137613;27;20043;-76
2023/04/26 12:40:06;;;;;;;10.57;2.47;;;;;;;;;;5123005;27;20623;-75
2023/04/26 12:42:32;;;;;;;7.78;2.30;;;;;;;;;;5137613;27;20042;-76
2023/04/26 12:44:58;;;;;;;7.63;2.30;;;;;;;;;;5155748;27;20050;-75
2023/04/26 12:47:24;;;;;;;5.40;1.98;;;;;;;;;;5137343;27;20030;-76
2023/04/26 12:49:51;;;;;;;5.57;2.22;;;;;;;;;;5155930;27;20043;-75
2023/04/26 12:52:17;;;;;;;6.75;2.00;;;;;;;;;;5155426;27;20045;-76
2023/04/26 12:54:43;;;;;;;9.38;2.22;;;;;;;;;;5137248;27;20095;-75
2023/04/26 12:57:09;;;;;;;4.45;2.20;;;;;;;;;;5136662;27;20050;-76
2023/04/26 12:59:36;;;;;;;8.32;2.28;;;;;;;;;;5137413;27;20042;-75
2023/04/26 13:02:02;;;;;;;9.07;2.33;;;;;;;;;;5137079;27;20518;-75
2023/04/26 13:04:28;;;;;;;12.18;2.30;;;;;;;;;;5116667;27;20114;-75
2023/04/26 13:06:55;;;;;;;10.43;2.90;;;;;;;;;;5147385;27;20460;-76
2023/04/26 13:09:21;;;;;;;8.50;3.00;;;;;;;;;;5137090;27;20480;-74
2023/04/26 13:11:47;;;;;;;5.47;2.10;;;;;;;;;;5127154;27;20511;-75
2023/04/26 13:14:13;;;;;;;5.75;2.10;;;;;;;;;;5136730;27;20043;-77
2023/04/26 13:16:42;;;;;;;6.10;2.35;;;;;;;;;;5136981;27;20031;-75
2023/04/26 13:19:09;;;;;;;8.88;2.20;;;;;;;;;;5140733;27;20035;-75
2023/04/26 13:21:36;;;;;;;5.25;2.20;;;;;;;;;;5137016;27;20043;-76
2023/04/26 13:24:02;;;;;;;8.50;2.30;;;;;;;;;;5155364;27;20057;-74
2023/04/26 13:26:28;;;;;;;6.68;2.25;;;;;;;;;;5154764;27;20562;-75
2023/04/26 13:28:54;;;;;;;7.07;1.90;;;;;;;;;;5155807;27;20039;-75
2023/04/26 13:31:20;;;;;;;5.82;2.22;;;;;;;;;;5155146;27;20031;-75
2023/04/26 13:33:48;;;;;;;4.78;1.98;;;;;;;;;;5146044;27;20066;-76
2023/04/26 13:36:14;;;;;;;8.50;2.20;;;;;;;;;;5131367;27;20054;-75
2023/04/26 13:38:41;;;;;;;4.68;2.00;;;;;;;;;;5155111;27;20038;-74
2023/04/26 13:41:07;;;;;;;8.52;2.63;;;;;;;;;;5136596;27;20035;-75
2023/04/26 13:43:33;;;;;;;7.80;1.95;;;;;;;;;;5155008;27;20042;-74
2023/04/26 13:46:00;;;;;;;7.03;2.10;;;;;;;;;;5118939;27;20067;-76
2023/04/26 13:48:26;;;;;;;6.68;2.00;;;;;;;;;;5140002;27;20035;-75
2023/04/26 13:50:54;;;;;;;4.07;1.70;;;;;;;;;;5154958;27;20506;-76
2023/04/26 13:53:21;;;;;;;4.68;2.13;;;;;;;;;;5152029;27;20043;-75
2023/04/26 13:55:50;;;;;;;5.80;2.20;;;;;;;;;;5124074;27;20041;-76
2023/04/26 13:58:16;;;;;;;4.80;1.70;;;;;;;;;;5136084;27;20099;-75
2023/04/26 14:00:43;;;;;;;9.23;1.92;;;;;;;;;;5138066;27;20057;-75
2023/04/26 14:03:09;;;;;;;6.43;2.03;;;;;;;;;;5124940;27;20042;-75
2023/04/26 14:05:35;;;;;;;6.55;2.17;;;;;;;;;;5139814;27;20035;-74
2023/04/26 14:08:01;;;;;;;6.57;2.25;;;;;;;;;;5154589;27;20035;-75
2023/04/26 14:10:27;;;;;;;6.68;2.25;;;;;;;;;;5141078;27;20082;-75
2023/04/26 14:12:55;;;;;;;4.18;1.90;;;;;;;;;;5118365;27;20122;-75
2023/04/26 14:15:21;;;;;;;6.72;2.10;;;;;;;;;;5118698;27;20066;-75
2023/04/26 14:17:47;;;;;;;6.55;2.13;;;;;;;;;;5139978;27;20038;-75
2023/04/26 14:20:13;;;;;;;7.43;2.20;;;;;;;;;;5135750;27;20113;-75
2023/04/26 14:22:40;;;;;;;5.15;1.80;;;;;;;;;;5138322;27;20035;-75
2023/04/26 14:25:06;;;;;;;8.07;1.90;;;;;;;;;;5115180;27;20035;-75
2023/04/26 14:27:32;;;;;;;6.35;1.80;;;;;;;;;;5128614;27;20062;-74
2023/04/26 14:29:58;;;;;;;6.07;1.95;;;;;;;;;;5115993;27;20043;-74
2023/04/26 14:32:24;;;;;;;7.70;2.03;;;;;;;;;;5147072;27;20039;-74
2023/04/26 14:34:50;;;;;;;7.10;1.90;;;;;;;;;;5115807;28;20035;-75
2023/04/26 14:37:21;;;;;;;7.00;2.22;;;;;;;;;;5145039;27;20122;-75
2023/04/26 14:39:47;;;;;;;10.32;2.30;;;;;;;;;;5140325;27;20046;-76
2023/04/26 14:42:13;;;;;;;5.72;2.20;;;;;;;;;;5154234;27;20035;-75
2023/04/26 14:44:40;;;;;;;5.18;2.00;;;;;;;;;;5139684;27;20475;-74